DAL420 KMIA-LFPG
Flight info
| Callsign | DAL420 |
|---|---|
| Flight time | N/A |
| Altitude | 37000 |
| Route | FOLZZ3 SUMRS/M082F370 M204 FLUPS/M082F390 M204 LUNKR DCT 38N060W 42N050W 45N040W 4730N03000W 49N020W DCT KOGAD DCT BIMGO DCT GAPLI/N0467F390 DCT ANNET UM25 INGOR/N0463F280 UM25 LUKIP |
| Aircraft | A333/H-SDE3GHIJ2J3J5M1RVWXY/LB2D1 |
Departure
| Time | 2026-04-30 20:00 |
|---|---|
| Airport | Miami International Airport (KMIA) |
Arrival
| Time | N/A |
|---|---|
| Airport | Charles de Gaulle International Airport (LFPG) |
| Time | Latitude | Longitude | Altitude | Speed | Heading |
|---|---|---|---|---|---|
| 2026-04-30 19:38 | 25.79415 | -80.28462 | 26 ft | 0 kts | 38° |
| 2026-04-30 19:49 | 25.79412 | -80.28465 | 32 ft | 2 kts | 38° |
| 2026-04-30 19:49 | 25.79399 | -80.28477 | 32 ft | 2 kts | 38° |
| 2026-04-30 19:50 | 25.79385 | -80.28489 | 32 ft | 2 kts | 38° |
| 2026-04-30 19:50 | 25.79371 | -80.28499 | 32 ft | 2 kts | 28° |
| 2026-04-30 19:50 | 25.79355 | -80.28508 | 32 ft | 3 kts | 0° |
| 2026-04-30 19:50 | 25.79337 | -80.28504 | 32 ft | 2 kts | 333° |
| 2026-04-30 19:51 | 25.79335 | -80.28504 | 32 ft | 0 kts | 324° |
| 2026-04-30 19:54 | 25.79337 | -80.28507 | 32 ft | 2 kts | 312° |
| 2026-04-30 19:54 | 25.79339 | -80.28560 | 28 ft | 10 kts | 264° |
| 2026-04-30 19:54 | 25.79345 | -80.28646 | 26 ft | 12 kts | 288° |
| 2026-04-30 19:55 | 25.79387 | -80.28737 | 24 ft | 14 kts | 299° |
| 2026-04-30 19:55 | 25.79433 | -80.28826 | 25 ft | 13 kts | 300° |
| 2026-04-30 19:55 | 25.79476 | -80.28910 | 26 ft | 13 kts | 300° |
| 2026-04-30 19:55 | 25.79523 | -80.29001 | 25 ft | 14 kts | 300° |
| 2026-04-30 19:56 | 25.79570 | -80.29093 | 30 ft | 13 kts | 299° |
| 2026-04-30 19:56 | 25.79611 | -80.29174 | 27 ft | 11 kts | 299° |
| 2026-04-30 19:56 | 25.79650 | -80.29252 | 27 ft | 12 kts | 299° |
| 2026-04-30 19:56 | 25.79693 | -80.29338 | 31 ft | 13 kts | 299° |
| 2026-04-30 19:57 | 25.79739 | -80.29428 | 29 ft | 13 kts | 300° |
| 2026-04-30 19:57 | 25.79787 | -80.29520 | 29 ft | 15 kts | 300° |
| 2026-04-30 19:57 | 25.79841 | -80.29625 | 23 ft | 17 kts | 300° |
| 2026-04-30 19:57 | 25.79888 | -80.29744 | 22 ft | 17 kts | 276° |
| 2026-04-30 19:58 | 25.79892 | -80.29874 | 22 ft | 17 kts | 277° |
| 2026-04-30 19:58 | 25.79935 | -80.29991 | 23 ft | 17 kts | 298° |
| 2026-04-30 19:58 | 25.79992 | -80.30098 | 26 ft | 15 kts | 314° |
| 2026-04-30 19:58 | 25.80068 | -80.30089 | 23 ft | 11 kts | 66° |
| 2026-04-30 19:59 | 25.80077 | -80.29987 | 21 ft | 21 kts | 87° |
| 2026-04-30 19:59 | 25.80093 | -80.29600 | 22 ft | 85 kts | 88° |
| 2026-04-30 19:59 | 25.80180 | -80.27331 | 256 ft | 195 kts | 88° |
| 2026-04-30 20:00 | 25.80228 | -80.25764 | 933 ft | 199 kts | 88° |
| 2026-04-30 20:00 | 25.80275 | -80.24249 | 1635 ft | 200 kts | 88° |
| 2026-04-30 20:00 | 25.80325 | -80.22653 | 1896 ft | 221 kts | 88° |
| 2026-04-30 20:00 | 25.80107 | -80.20898 | 2247 ft | 236 kts | 115° |
| 2026-04-30 20:01 | 25.78146 | -80.17697 | 2927 ft | 266 kts | 126° |
| 2026-04-30 20:01 | 25.77030 | -80.16039 | 3541 ft | 269 kts | 128° |
| 2026-04-30 20:01 | 25.75861 | -80.14402 | 4222 ft | 272 kts | 127° |
| 2026-04-30 20:02 | 25.74746 | -80.10486 | 5494 ft | 278 kts | 81° |
| 2026-04-30 20:02 | 25.75459 | -80.08505 | 6139 ft | 280 kts | 55° |
| 2026-04-30 20:03 | 25.78004 | -80.05184 | 7471 ft | 285 kts | 47° |
| 2026-04-30 20:03 | 25.79340 | -80.03538 | 8144 ft | 288 kts | 48° |
| 2026-04-30 20:03 | 25.80682 | -80.01868 | 8811 ft | 291 kts | 48° |
| 2026-04-30 20:03 | 25.82032 | -80.00174 | 9486 ft | 294 kts | 48° |
| 2026-04-30 20:04 | 25.83391 | -79.98458 | 10138 ft | 297 kts | 48° |
| 2026-04-30 20:04 | 25.84770 | -79.96712 | 10489 ft | 313 kts | 49° |
| 2026-04-30 20:04 | 25.86262 | -79.94819 | 10731 ft | 330 kts | 49° |
| 2026-04-30 20:05 | 25.89418 | -79.90809 | 11165 ft | 362 kts | 49° |
| 2026-04-30 20:05 | 25.91108 | -79.88659 | 11373 ft | 377 kts | 49° |
| 2026-04-30 20:05 | 25.94630 | -79.84176 | 12204 ft | 390 kts | 49° |
| 2026-04-30 20:06 | 25.96421 | -79.81893 | 12716 ft | 393 kts | 49° |
| 2026-04-30 20:06 | 25.98231 | -79.79584 | 13240 ft | 396 kts | 49° |
| 2026-04-30 20:06 | 26.00051 | -79.77262 | 13739 ft | 399 kts | 49° |
| 2026-04-30 20:06 | 26.01881 | -79.74927 | 14225 ft | 402 kts | 49° |
| 2026-04-30 20:07 | 26.03703 | -79.72599 | 14700 ft | 405 kts | 49° |
| 2026-04-30 20:07 | 26.05563 | -79.70223 | 15167 ft | 408 kts | 49° |
| 2026-04-30 20:07 | 26.09312 | -79.65428 | 16081 ft | 414 kts | 49° |
| 2026-04-30 20:08 | 26.11126 | -79.62925 | 16523 ft | 416 kts | 53° |
| 2026-04-30 20:08 | 26.12828 | -79.60302 | 16944 ft | 419 kts | 54° |
| 2026-04-30 20:08 | 26.14513 | -79.57646 | 17370 ft | 422 kts | 54° |
| 2026-04-30 20:08 | 26.16211 | -79.54963 | 17785 ft | 424 kts | 54° |
| 2026-04-30 20:09 | 26.17920 | -79.52264 | 18169 ft | 427 kts | 54° |
| 2026-04-30 20:09 | 26.19638 | -79.49552 | 18565 ft | 429 kts | 54° |
| 2026-04-30 20:09 | 26.23103 | -79.44081 | 19295 ft | 434 kts | 54° |
| 2026-04-30 20:10 | 26.26586 | -79.38586 | 19996 ft | 439 kts | 54° |
| 2026-04-30 20:10 | 26.28503 | -79.35936 | 20333 ft | 441 kts | 46° |
| 2026-04-30 20:10 | 26.30800 | -79.33647 | 20664 ft | 443 kts | 36° |
| 2026-04-30 20:11 | 26.35966 | -79.29846 | 21311 ft | 447 kts | 32° |
| 2026-04-30 20:11 | 26.38608 | -79.27981 | 21633 ft | 449 kts | 32° |
| 2026-04-30 20:11 | 26.41250 | -79.26111 | 21940 ft | 452 kts | 32° |
| 2026-04-30 20:12 | 26.46586 | -79.22317 | 22558 ft | 456 kts | 32° |
| 2026-04-30 20:12 | 26.49263 | -79.20409 | 22862 ft | 458 kts | 32° |
| 2026-04-30 20:12 | 26.51954 | -79.18489 | 23154 ft | 460 kts | 32° |
| 2026-04-30 20:13 | 26.54626 | -79.16580 | 23455 ft | 462 kts | 32° |
| 2026-04-30 20:13 | 26.57370 | -79.14619 | 23750 ft | 464 kts | 32° |
| 2026-04-30 20:13 | 26.60064 | -79.12692 | 24034 ft | 466 kts | 32° |
| 2026-04-30 20:13 | 26.62805 | -79.10730 | 24303 ft | 468 kts | 32° |
| 2026-04-30 20:14 | 26.65565 | -79.08754 | 24605 ft | 470 kts | 32° |
| 2026-04-30 20:14 | 26.68328 | -79.06774 | 24883 ft | 472 kts | 32° |
| 2026-04-30 20:14 | 26.71108 | -79.04781 | 25158 ft | 474 kts | 32° |
| 2026-04-30 20:14 | 26.73894 | -79.02782 | 25432 ft | 476 kts | 32° |
| 2026-04-30 20:15 | 26.76690 | -79.00775 | 25698 ft | 478 kts | 32° |
| 2026-04-30 20:15 | 26.79465 | -78.98782 | 25956 ft | 480 kts | 32° |
| 2026-04-30 20:15 | 26.82279 | -78.96760 | 26221 ft | 482 kts | 32° |
| 2026-04-30 20:15 | 26.85107 | -78.94727 | 26476 ft | 484 kts | 32° |
| 2026-04-30 20:16 | 26.87952 | -78.92680 | 26725 ft | 486 kts | 32° |
| 2026-04-30 20:16 | 26.90803 | -78.90627 | 26981 ft | 488 kts | 32° |
| 2026-04-30 20:16 | 26.93657 | -78.88571 | 27235 ft | 489 kts | 32° |
| 2026-04-30 20:16 | 26.96535 | -78.86496 | 27458 ft | 491 kts | 32° |
| 2026-04-30 20:17 | 26.99411 | -78.84422 | 27704 ft | 493 kts | 32° |
| 2026-04-30 20:17 | 27.02310 | -78.82330 | 27950 ft | 495 kts | 32° |
| 2026-04-30 20:17 | 27.05202 | -78.80241 | 28179 ft | 497 kts | 32° |
| 2026-04-30 20:17 | 27.08120 | -78.78133 | 28400 ft | 498 kts | 32° |
| 2026-04-30 20:18 | 27.10999 | -78.76051 | 28619 ft | 500 kts | 32° |
| 2026-04-30 20:18 | 27.13966 | -78.73905 | 28849 ft | 501 kts | 32° |
| 2026-04-30 20:18 | 27.16861 | -78.71808 | 29164 ft | 500 kts | 32° |
| 2026-04-30 20:18 | 27.19786 | -78.69689 | 29490 ft | 499 kts | 32° |
| 2026-04-30 20:19 | 27.22709 | -78.67571 | 29791 ft | 498 kts | 32° |
| 2026-04-30 20:19 | 27.24635 | -78.66173 | 29990 ft | 498 kts | 33° |
| 2026-04-30 20:19 | 27.28343 | -78.63059 | 30366 ft | 498 kts | 42° |
| 2026-04-30 20:19 | 27.30719 | -78.60234 | 30647 ft | 497 kts | 50° |
| 2026-04-30 20:20 | 27.32899 | -78.57208 | 30929 ft | 497 kts | 51° |
| 2026-04-30 20:20 | 27.35036 | -78.54157 | 31208 ft | 496 kts | 52° |
| 2026-04-30 20:20 | 27.37169 | -78.51103 | 31486 ft | 496 kts | 52° |
| 2026-04-30 20:20 | 27.39303 | -78.48050 | 31756 ft | 495 kts | 51° |
| 2026-04-30 20:21 | 27.41433 | -78.45007 | 32021 ft | 495 kts | 51° |
| 2026-04-30 20:21 | 27.43556 | -78.41973 | 32282 ft | 494 kts | 51° |
| 2026-04-30 20:21 | 27.45683 | -78.38935 | 32539 ft | 494 kts | 51° |
| 2026-04-30 20:21 | 27.47811 | -78.35893 | 32791 ft | 493 kts | 51° |
| 2026-04-30 20:22 | 27.49906 | -78.32897 | 33030 ft | 493 kts | 51° |
| 2026-04-30 20:22 | 27.52029 | -78.29859 | 33284 ft | 492 kts | 51° |
| 2026-04-30 20:22 | 27.54141 | -78.26834 | 33514 ft | 492 kts | 52° |
| 2026-04-30 20:22 | 27.56259 | -78.23800 | 33741 ft | 491 kts | 52° |
| 2026-04-30 20:23 | 27.58377 | -78.20764 | 33977 ft | 491 kts | 52° |
| 2026-04-30 20:23 | 27.60489 | -78.17733 | 34199 ft | 490 kts | 52° |
| 2026-04-30 20:23 | 27.62574 | -78.14739 | 34413 ft | 490 kts | 52° |
| 2026-04-30 20:23 | 27.64679 | -78.11715 | 34630 ft | 490 kts | 52° |
| 2026-04-30 20:24 | 27.66782 | -78.08691 | 34840 ft | 489 kts | 52° |
| 2026-04-30 20:24 | 27.68882 | -78.05670 | 35045 ft | 489 kts | 52° |
| 2026-04-30 20:24 | 27.70986 | -78.02640 | 35252 ft | 488 kts | 52° |
| 2026-04-30 20:24 | 27.73080 | -77.99624 | 35446 ft | 488 kts | 52° |
| 2026-04-30 20:25 | 27.77241 | -77.93622 | 35824 ft | 487 kts | 52° |
| 2026-04-30 20:25 | 27.79332 | -77.90603 | 36011 ft | 487 kts | 52° |
| 2026-04-30 20:26 | 27.83499 | -77.84580 | 36355 ft | 487 kts | 52° |
| 2026-04-30 20:26 | 27.87671 | -77.78543 | 36656 ft | 487 kts | 52° |
| 2026-04-30 20:26 | 27.89756 | -77.75522 | 36802 ft | 487 kts | 52° |
| 2026-04-30 20:27 | 27.93922 | -77.69479 | 36997 ft | 488 kts | 52° |
| 2026-04-30 20:27 | 27.98103 | -77.63406 | 37000 ft | 488 kts | 52° |
| 2026-04-30 20:28 | 28.06421 | -77.51300 | 37000 ft | 488 kts | 52° |
| 2026-04-30 20:30 | 28.16826 | -77.36107 | 37000 ft | 488 kts | 52° |
| 2026-04-30 20:31 | 28.29267 | -77.17870 | 37000 ft | 488 kts | 52° |
| 2026-04-30 20:32 | 28.39647 | -77.02594 | 37000 ft | 488 kts | 52° |
| 2026-04-30 20:33 | 28.45835 | -76.93461 | 37000 ft | 488 kts | 52° |
| 2026-04-30 20:34 | 28.52042 | -76.84281 | 37000 ft | 488 kts | 52° |
| 2026-04-30 20:35 | 28.58244 | -76.75088 | 37000 ft | 488 kts | 52° |
| 2026-04-30 20:35 | 28.64414 | -76.65923 | 37000 ft | 488 kts | 52° |
| 2026-04-30 20:36 | 28.68543 | -76.59778 | 37000 ft | 488 kts | 52° |
| 2026-04-30 20:37 | 28.74882 | -76.50702 | 37000 ft | 488 kts | 50° |
| 2026-04-30 20:37 | 28.79284 | -76.44799 | 37000 ft | 488 kts | 49° |
| 2026-04-30 20:38 | 28.82937 | -76.39903 | 37000 ft | 488 kts | 50° |
| 2026-04-30 20:38 | 28.87310 | -76.33996 | 37000 ft | 488 kts | 50° |